Time;durP1;ratioP1;P1;durP2;ratioP2;P2;SDS_P1;SDS_P2;PMS_P1;PMS_P2;Temp;Humidity;BMP_temperature;BMP_pressure;BME280_temperature;BME280_humidity;BME280_pressure;Samples;Min_cycle;Max_cycle;Signal;HPM_P1;HPM_P2
2023/02/18 00:01:13;;;;;;;4.93;4.43;;;;;;;12.40;92.16;100884.56;10334357;28;20052;-67
2023/02/18 00:06:22;;;;;;;5.30;4.55;;;;;;;12.50;92.02;100896.22;10327215;28;20604;-65
2023/02/18 00:11:24;;;;;;;4.90;4.35;;;;;;;12.49;91.44;100890.03;10317765;28;20050;-66
2023/02/18 00:16:29;;;;;;;5.15;4.75;;;;;;;12.47;91.16;100883.94;10323883;28;20050;-67
2023/02/18 00:21:32;;;;;;;4.43;4.03;;;;;;;12.40;90.60;100887.22;10322852;28;20834;-66
2023/02/18 00:26:34;;;;;;;4.05;3.53;;;;;;;12.23;91.15;100872.53;10319715;28;20123;-66
2023/02/18 00:31:37;;;;;;;3.25;2.95;;;;;;;12.24;90.64;100885.75;10317318;28;20169;-66
2023/02/18 00:36:39;;;;;;;2.93;2.70;;;;;;;12.25;90.44;100897.28;10317514;28;20045;-65
2023/02/18 00:41:42;;;;;;;1.85;1.55;;;;;;;12.19;88.51;100898.63;10316129;28;20046;-65
2023/02/18 00:46:43;;;;;;;1.77;1.60;;;;;;;12.26;88.59;100888.31;10315366;28;20453;-65
2023/02/18 00:51:45;;;;;;;1.55;1.45;;;;;;;12.25;89.04;100897.28;10314874;28;20065;-67
2023/02/18 00:56:46;;;;;;;1.80;1.70;;;;;;;12.27;88.77;100882.84;10313246;28;20143;-66
2023/02/18 01:01:47;;;;;;;2.63;2.35;;;;;;;12.27;89.92;100900.69;10313033;28;20501;-64
2023/02/18 01:06:49;;;;;;;2.20;1.98;;;;;;;12.17;91.04;100890.75;10316178;28;20121;-67
2023/02/18 01:11:50;;;;;;;2.75;1.88;;;;;;;12.18;92.91;100900.41;10315618;28;20057;-66
2023/02/18 01:16:51;;;;;;;2.67;1.70;;;;;;;12.05;94.61;100882.81;10316752;28;20074;-67
2023/02/18 01:21:53;;;;;;;2.22;2.03;;;;;;;12.13;94.13;100893.72;10315960;28;20072;-65
2023/02/18 01:26:54;;;;;;;4.00;3.00;;;;;;;12.15;94.61;100886.47;10312008;28;20050;-66
2023/02/18 01:31:55;;;;;;;3.38;3.08;;;;;;;12.08;94.49;100879.91;10310796;28;20077;-67
2023/02/18 01:36:57;;;;;;;4.63;3.33;;;;;;;12.07;94.49;100886.19;10312653;28;20417;-72
2023/02/18 01:41:58;;;;;;;2.65;2.40;;;;;;;12.07;93.01;100871.06;10315290;28;20057;-66
2023/02/18 01:47:00;;;;;;;2.40;2.20;;;;;;;12.03;93.09;100878.44;10309365;28;20906;-65
2023/02/18 01:52:10;;;;;;;2.83;2.00;;;;;;;11.98;92.09;100851.28;10308777;28;20049;-66
2023/02/18 01:57:17;;;;;;;1.77;1.52;;;;;;;11.98;91.33;100851.28;10311267;28;20054;-66
2023/02/18 02:02:21;;;;;;;1.98;1.77;;;;;;;12.03;91.45;100848.25;10313650;28;20172;-67
2023/02/18 02:07:25;;;;;;;2.42;1.92;;;;;;;11.98;90.79;100853.94;10311391;28;20560;-67
2023/02/18 02:13:11;;;;;;;2.10;1.67;;;;;;;11.83;90.40;100828.41;10316924;28;20043;-65
2023/02/18 02:18:31;;;;;;;1.55;1.23;;;;;;;11.92;88.66;100842.84;10321027;28;20514;-66
2023/02/18 02:24:00;;;;;;;1.30;1.20;;;;;;;11.99;87.94;100830.75;10330606;28;20715;-65
2023/02/18 02:29:14;;;;;;;1.00;0.82;;;;;;;11.94;87.06;100824.94;10323908;28;20129;-65
2023/02/18 02:34:34;;;;;;;1.83;0.93;;;;;;;11.86;86.86;100830.84;10318101;28;20069;-62
2023/02/18 02:39:47;;;;;;;1.20;1.10;;;;;;;11.95;86.92;100837.28;10312376;28;20052;-67
2023/02/18 02:45:00;;;;;;;2.55;1.05;;;;;;;11.93;86.99;100816.06;10308225;28;20452;-64
2023/02/18 02:50:08;;;;;;;1.80;0.73;;;;;;;11.90;86.68;100808.28;10318748;28;20073;-64
2023/02/18 02:55:11;;;;;;;1.00;0.50;;;;;;;11.91;86.68;100810.00;10309500;28;20528;-67
2023/02/18 03:00:16;;;;;;;1.40;0.80;;;;;;;11.98;86.70;100813.91;10315411;28;20053;-64
2023/02/18 03:05:36;;;;;;;0.73;0.55;;;;;;;11.90;86.16;100813.63;10317032;28;20136;-64
2023/02/18 03:10:43;;;;;;;3.20;0.47;;;;;;;11.81;86.61;100807.19;10318367;28;20116;-65
2023/02/18 03:15:55;;;;;;;0.73;0.43;;;;;;;11.75;86.20;100809.47;10321258;28;20465;-64
2023/02/18 03:21:01;;;;;;;0.82;0.30;;;;;;;11.71;86.38;100797.31;10324965;28;20053;-64
2023/02/18 03:26:05;;;;;;;0.50;0.30;;;;;;;11.67;86.71;100791.38;10323598;28;20091;-64
2023/02/18 03:31:15;;;;;;;0.45;0.20;;;;;;;11.70;87.33;100790.31;10337362;28;20053;-64
2023/02/18 03:36:20;;;;;;;1.42;0.30;;;;;;;11.71;87.74;100800.00;10316816;28;20057;-65
2023/02/18 03:41:21;;;;;;;1.10;0.40;;;;;;;11.65;87.78;100798.66;10318502;28;20050;-64
2023/02/18 03:46:22;;;;;;;0.82;0.30;;;;;;;11.78;87.39;100815.41;10321689;28;20053;-65
2023/02/18 03:51:24;;;;;;;2.05;0.40;;;;;;;11.75;86.98;100807.63;10323277;28;20053;-64
2023/02/18 03:56:25;;;;;;;0.68;0.38;;;;;;;11.74;86.46;100802.41;10319827;28;20823;-64
2023/02/18 04:01:27;;;;;;;0.88;0.40;;;;;;;11.64;86.81;100787.13;10319304;28;20073;-64
2023/02/18 04:06:29;;;;;;;1.13;0.50;;;;;;;11.65;87.09;100796.84;10323335;28;20050;-65
2023/02/18 04:11:31;;;;;;;2.10;0.40;;;;;;;11.70;87.29;100790.31;10322946;28;20773;-65
2023/02/18 04:16:32;;;;;;;0.68;0.20;;;;;;;11.66;87.70;100795.88;10316599;28;20061;-65
2023/02/18 04:21:34;;;;;;;1.40;0.47;;;;;;;11.64;87.86;100792.47;10319961;28;20156;-64
2023/02/18 04:26:35;;;;;;;1.67;0.50;;;;;;;11.56;88.43;100780.69;10328319;28;20042;-65
2023/02/18 04:31:36;;;;;;;0.65;0.43;;;;;;;11.66;88.48;100787.00;10314722;28;20537;-65
2023/02/18 04:36:38;;;;;;;0.90;0.50;;;;;;;11.60;88.48;100780.31;10312250;28;20049;-65
2023/02/18 04:41:39;;;;;;;0.80;0.80;;;;;;;11.55;88.13;100777.19;10316645;28;20054;-65
2023/02/18 04:46:41;;;;;;;1.00;0.75;;;;;;;11.48;87.99;100766.16;10344255;28;20073;-62
2023/02/18 04:51:43;;;;;;;0.55;0.30;;;;;;;11.66;87.46;100781.69;10312678;28;20059;-65
2023/02/18 04:56:44;;;;;;;1.20;0.32;;;;;;;11.55;87.83;100771.84;10315877;28;20145;-65
2023/02/18 05:01:45;;;;;;;1.05;0.50;;;;;;;11.60;88.75;100783.00;10313415;28;20810;-65
2023/02/18 05:06:47;;;;;;;1.02;0.75;;;;;;;11.49;90.66;100756.31;10311835;28;20754;-65
2023/02/18 05:11:48;;;;;;;1.02;0.82;;;;;;;11.66;91.44;100758.56;10315963;28;20769;-64
2023/02/18 05:16:50;;;;;;;2.95;1.23;;;;;;;11.53;93.41;100757.78;10306582;28;20537;-65
2023/02/18 05:21:51;;;;;;;1.80;1.50;;;;;;;11.52;96.11;100756.09;10308511;28;20041;-65
2023/02/18 05:26:53;;;;;;;2.15;1.60;;;;;;;11.42;98.53;100760.41;10314482;28;20046;-65
2023/02/18 05:31:54;;;;;;;2.22;1.33;;;;;;;11.29;100.00;100739.19;10312820;28;20546;-65
2023/02/18 05:36:56;;;;;;;1.88;1.30;;;;;;;11.22;100.00;100721.97;10311950;28;20041;-65
2023/02/18 05:41:57;;;;;;;1.95;1.60;;;;;;;11.20;100.00;100732.72;10307580;28;20057;-65
2023/02/18 05:47:01;;;;;;;2.10;1.02;;;;;;;11.26;99.21;100723.41;10312099;28;20060;-64
2023/02/18 05:52:03;;;;;;;3.50;1.30;;;;;;;11.26;98.09;100713.63;10312444;28;20045;-64
2023/02/18 05:57:05;;;;;;;1.65;0.90;;;;;;;11.32;96.72;100713.13;10315196;28;20056;-64
2023/02/18 06:02:06;;;;;;;1.38;1.20;;;;;;;11.35;95.63;100708.53;10310745;28;20046;-65
2023/02/18 06:07:07;;;;;;;1.52;1.30;;;;;;;11.30;95.09;100687.56;10324927;28;20160;-67
2023/02/18 06:12:11;;;;;;;1.75;1.23;;;;;;;11.37;94.32;100688.78;10317300;28;20052;-66
2023/02/18 06:17:14;;;;;;;1.58;1.42;;;;;;;11.28;93.61;100685.03;10318183;28;20525;-65
2023/02/18 06:22:15;;;;;;;1.38;1.27;;;;;;;11.38;92.08;100700.28;10310091;28;20054;-64
2023/02/18 06:27:16;;;;;;;1.60;1.45;;;;;;;11.40;90.86;100703.72;10316149;28;20050;-67
2023/02/18 06:32:18;;;;;;;2.40;1.52;;;;;;;11.30;88.97;100690.22;10308562;28;20537;-65
2023/02/18 06:37:19;;;;;;;2.17;1.75;;;;;;;11.32;87.10;100691.81;10312657;28;21746;-66
2023/02/18 06:42:21;;;;;;;1.52;1.42;;;;;;;11.34;85.84;100702.38;10306774;28;20178;-65
2023/02/18 06:47:22;;;;;;;2.45;1.40;;;;;;;11.33;84.47;100711.31;10310216;28;20045;-65
2023/02/18 06:52:24;;;;;;;2.20;1.80;;;;;;;11.41;83.23;100697.41;10306886;28;20050;-65
2023/02/18 06:57:25;;;;;;;1.75;1.55;;;;;;;11.28;81.65;100662.88;10308594;28;20136;-65
2023/02/18 07:02:27;;;;;;;1.98;1.45;;;;;;;11.41;80.51;100686.72;10307052;28;20054;-64
2023/02/18 07:07:28;;;;;;;1.40;1.30;;;;;;;11.41;79.74;100686.72;10338743;28;20116;-64
2023/02/18 07:12:30;;;;;;;1.67;1.40;;;;;;;11.43;79.01;100676.81;10312651;28;20157;-66
2023/02/18 07:17:31;;;;;;;3.47;1.88;;;;;;;11.44;76.97;100675.84;10316337;28;20057;-64
2023/02/18 07:22:33;;;;;;;1.80;1.70;;;;;;;11.40;77.12;100680.56;10309950;28;20059;-67
2023/02/18 07:27:34;;;;;;;1.50;1.25;;;;;;;11.37;75.92;100661.31;10306297;28;20049;-64
2023/02/18 07:32:35;;;;;;;1.67;1.35;;;;;;;11.36;73.25;100686.25;10301105;28;20136;-67
2023/02/18 07:37:37;;;;;;;1.40;1.23;;;;;;;11.39;72.70;100704.66;10308950;28;20046;-64
2023/02/18 07:42:38;;;;;;;2.13;1.08;;;;;;;11.35;71.33;100676.53;10309428;28;20060;-64
2023/02/18 07:47:41;;;;;;;1.52;0.60;;;;;;;11.52;72.15;100685.94;10314660;28;20200;-65
2023/02/18 07:52:42;;;;;;;1.25;0.70;;;;;;;11.52;70.64;100670.78;10313579;28;20046;-64
2023/02/18 07:57:56;;;;;;;1.30;0.90;;;;;;;11.54;69.41;100691.97;10305061;28;20321;-65
2023/02/18 08:02:57;;;;;;;1.10;0.80;;;;;;;11.51;68.78;100693.06;10311053;28;20042;-66
2023/02/18 08:07:58;;;;;;;1.58;1.20;;;;;;;11.40;68.94;100671.72;10316484;28;20057;-68
2023/02/18 08:13:00;;;;;;;1.73;1.20;;;;;;;11.48;68.71;100666.63;10320795;28;20558;-66
2023/02/18 08:18:01;;;;;;;1.70;1.35;;;;;;;11.40;67.47;100655.75;10320303;28;20053;-65
2023/02/18 08:23:03;;;;;;;3.35;1.95;;;;;;;11.44;67.36;100687.38;10314779;28;20049;-66
2023/02/18 08:28:05;;;;;;;2.30;2.10;;;;;;;11.49;66.80;100681.66;10316416;28;20400;-66
2023/02/18 08:33:06;;;;;;;4.00;2.00;;;;;;;11.61;67.09;100690.53;10315875;28;20057;-66
2023/02/18 08:38:08;;;;;;;2.85;2.65;;;;;;;11.77;66.47;100711.50;10311030;28;20053;-63
2023/02/18 08:43:10;;;;;;;2.28;2.05;;;;;;;11.87;65.01;100692.97;10312675;28;20057;-64
2023/02/18 08:48:12;;;;;;;2.80;2.00;;;;;;;11.94;64.77;100713.75;10315466;28;20075;-64
2023/02/18 08:53:20;;;;;;;2.13;1.92;;;;;;;11.88;64.61;100719.53;10311391;28;20049;-63
2023/02/18 08:58:22;;;;;;;4.18;2.22;;;;;;;11.83;64.15;100711.06;10312997;28;20050;-65
2023/02/18 09:03:23;;;;;;;2.90;2.38;;;;;;;11.77;63.82;100700.84;10313681;28;20104;-65
2023/02/18 09:08:27;;;;;;;2.97;2.10;;;;;;;11.76;63.62;100704.50;10318303;28;20107;-66
2023/02/18 09:13:28;;;;;;;3.42;2.53;;;;;;;11.78;63.04;100691.88;10316488;28;20061;-65
2023/02/18 09:18:31;;;;;;;3.55;2.15;;;;;;;11.86;62.42;100686.81;10314383;28;20060;-65
2023/02/18 09:23:33;;;;;;;3.65;1.45;;;;;;;12.02;62.56;100689.97;10312405;28;20054;-66
2023/02/18 09:28:35;;;;;;;2.17;1.58;;;;;;;12.17;61.88;100700.38;10334678;28;20917;-65
2023/02/18 09:33:42;;;;;;;1.60;1.25;;;;;;;12.18;61.74;100688.75;10311219;28;20052;-68
2023/02/18 09:38:46;;;;;;;1.73;1.25;;;;;;;12.06;62.09;100649.72;10304034;28;20058;-65
2023/02/18 09:43:51;;;;;;;1.90;1.55;;;;;;;11.93;61.73;100631.16;10315889;28;20460;-66
2023/02/18 09:48:54;;;;;;;1.55;1.27;;;;;;;11.93;61.78;100664.00;10310277;28;20124;-68
2023/02/18 09:53:55;;;;;;;1.77;0.93;;;;;;;11.99;62.80;100695.56;10311302;28;20201;-66
2023/02/18 09:59:02;;;;;;;1.67;1.27;;;;;;;11.94;62.41;100695.06;10303403;28;20453;-66
2023/02/18 10:04:18;;;;;;;1.48;0.90;;;;;;;11.95;62.92;100704.78;10333520;28;20075;-66
2023/02/18 10:09:22;;;;;;;2.92;1.30;;;;;;;12.04;62.63;100697.88;10358601;28;20612;-67
2023/02/18 10:14:25;;;;;;;2.90;1.20;;;;;;;11.80;62.93;100673.91;10332392;28;20057;-66
2023/02/18 10:19:33;;;;;;;1.45;0.60;;;;;;;11.93;63.04;100671.19;10316991;28;20603;-64
2023/02/18 10:24:41;;;;;;;1.40;0.60;;;;;;;11.99;62.87;100668.88;10313499;28;20068;-66
2023/02/18 10:29:42;;;;;;;1.83;0.60;;;;;;;12.10;62.40;100675.16;10315386;28;20050;-65
2023/02/18 10:34:53;;;;;;;0.60;0.30;;;;;;;12.12;62.26;100678.56;10312272;28;20054;-64
2023/02/18 10:40:21;;;;;;;0.32;0.20;;;;;;;12.06;63.00;100671.06;10312996;28;20136;-64
2023/02/18 10:45:25;;;;;;;1.08;0.30;;;;;;;12.19;62.11;100658.44;10308011;28;20049;-65
2023/02/18 10:50:40;;;;;;;1.30;0.10;;;;;;;12.22;61.50;100673.31;10308240;28;20057;-64
2023/02/18 10:55:45;;;;;;;0.52;0.10;;;;;;;12.20;61.60;100674.31;10304641;28;20133;-68
2023/02/18 11:00:46;;;;;;;1.27;0.20;;;;;;;12.31;61.44;100668.09;10306973;28;20061;-64
2023/02/18 11:05:54;;;;;;;0.73;0.10;;;;;;;12.35;61.11;100640.16;10308876;28;20061;-65
2023/02/18 11:10:57;;;;;;;0.35;0.35;;;;;;;12.36;60.95;100633.84;10304311;28;20069;-66
2023/02/18 11:16:05;;;;;;;1.30;0.28;;;;;;;12.22;61.22;100639.50;10307720;28;20059;-63
2023/02/18 11:21:35;;;;;;;1.42;0.50;;;;;;;12.20;61.56;100647.63;10309256;28;20049;-65
2023/02/18 11:26:38;;;;;;;0.85;0.30;;;;;;;12.26;61.04;100643.59;10307802;28;20042;-71
2023/02/18 11:31:48;;;;;;;1.70;0.40;;;;;;;12.47;60.84;100642.81;10311944;28;20275;-65
2023/02/18 11:36:52;;;;;;;2.28;0.43;;;;;;;12.52;60.77;100637.94;10306644;28;20061;-65
2023/02/18 11:42:05;;;;;;;1.65;0.32;;;;;;;12.42;61.05;100637.84;10318764;28;20054;-66
2023/02/18 11:47:39;;;;;;;1.15;0.40;;;;;;;12.19;61.37;100627.25;10326735;28;20128;-63
2023/02/18 11:52:46;;;;;;;1.48;0.40;;;;;;;12.12;61.88;100620.69;10324946;28;20958;-64
2023/02/18 11:57:55;;;;;;;1.23;0.30;;;;;;;12.01;62.19;100613.56;10320661;28;20124;-64
2023/02/18 12:02:59;;;;;;;1.40;0.95;;;;;;;12.03;61.71;100619.63;10321007;28;20571;-64
2023/02/18 12:08:17;;;;;;;2.70;0.80;;;;;;;11.99;61.67;100615.53;10346430;28;20050;-64
2023/02/18 12:13:26;;;;;;;0.80;0.38;;;;;;;12.00;61.74;100606.53;10339905;28;20502;-65
2023/02/18 12:18:28;;;;;;;2.38;0.80;;;;;;;12.06;61.88;100605.19;10320322;28;20106;-64
2023/02/18 12:23:46;;;;;;;1.23;0.60;;;;;;;12.09;61.40;100599.59;10320867;28;20117;-64
2023/02/18 12:29:00;;;;;;;1.67;0.60;;;;;;;12.10;61.68;100584.44;10320826;28;20096;-65
2023/02/18 12:34:23;;;;;;;0.93;0.73;;;;;;;12.22;61.55;100586.13;10318242;28;20057;-66
2023/02/18 12:39:43;;;;;;;2.67;0.70;;;;;;;12.26;61.65;100595.53;10317468;28;20053;-63
2023/02/18 12:45:13;;;;;;;1.13;0.77;;;;;;;12.15;62.05;100607.09;10313416;28;20737;-64
2023/02/18 12:50:35;;;;;;;1.13;0.50;;;;;;;12.18;62.64;100603.34;10313768;28;20049;-63
2023/02/18 12:55:46;;;;;;;1.90;0.68;;;;;;;12.22;62.45;100586.13;10310394;28;20054;-64
2023/02/18 13:01:22;;;;;;;2.53;0.70;;;;;;;12.18;63.28;100582.00;10313857;28;20054;-64
2023/02/18 13:06:57;;;;;;;3.63;1.48;;;;;;;12.14;66.46;100586.72;10315010;28;20168;-64
2023/02/18 13:12:09;;;;;;;1.52;0.70;;;;;;;12.10;67.70;100613.78;10315058;28;20448;-62
2023/02/18 13:17:14;;;;;;;2.42;1.08;;;;;;;12.19;68.86;100610.38;10320337;28;20049;-63
2023/02/18 13:22:19;;;;;;;2.50;1.15;;;;;;;12.20;69.01;100601.38;10312826;28;20566;-63
2023/02/18 13:27:25;;;;;;;4.57;1.90;;;;;;;12.23;68.19;100617.16;10316056;28;20042;-66
2023/02/18 13:32:38;;;;;;;2.55;1.42;;;;;;;12.15;68.30;100604.44;10315557;28;20049;-64
2023/02/18 13:37:46;;;;;;;3.97;0.93;;;;;;;12.16;68.37;100597.28;10317304;28;20286;-65
2023/02/18 13:42:51;;;;;;;2.53;0.90;;;;;;;12.01;68.58;100591.38;10316096;28;20517;-65
2023/02/18 13:47:54;;;;;;;3.45;1.00;;;;;;;12.08;68.80;100587.22;10308892;28;20555;-62
2023/02/18 13:53:08;;;;;;;4.32;1.38;;;;;;;12.07;68.36;100601.56;10312400;28;20141;-64
2023/02/18 13:58:18;;;;;;;3.20;1.00;;;;;;;12.06;69.21;100596.34;10314879;28;20627;-63
2023/02/18 14:03:41;;;;;;;4.13;1.27;;;;;;;11.91;70.00;100612.59;10325186;28;20049;-62
2023/02/18 14:08:43;;;;;;;2.85;1.20;;;;;;;11.82;71.86;100613.31;10318378;28;20064;-62
2023/02/18 14:13:52;;;;;;;2.60;1.35;;;;;;;11.77;73.42;100620.81;10325956;28;20073;-64
2023/02/18 14:18:57;;;;;;;2.10;1.50;;;;;;;11.84;74.47;100606.03;10314729;28;20052;-65
2023/02/18 14:24:02;;;;;;;3.80;2.25;;;;;;;11.92;75.03;100608.09;10311342;28;20122;-64
2023/02/18 14:29:26;;;;;;;3.83;1.60;;;;;;;11.95;74.67;100606.06;10317525;28;20037;-64
2023/02/18 14:34:49;;;;;;;2.53;1.58;;;;;;;12.05;74.57;100598.16;10308227;28;20056;-63
2023/02/18 14:40:09;;;;;;;2.90;1.75;;;;;;;12.02;74.45;100585.94;10314193;28;20057;-64
2023/02/18 14:45:35;;;;;;;2.63;1.38;;;;;;;11.89;74.60;100579.84;10313567;28;20093;-65
2023/02/18 14:50:42;;;;;;;2.15;1.17;;;;;;;11.90;74.85;100594.88;10305915;28;20158;-63
2023/02/18 14:55:47;;;;;;;3.00;1.27;;;;;;;11.99;74.32;100583.50;10315271;28;20619;-63
2023/02/18 15:00:51;;;;;;;3.53;1.15;;;;;;;11.96;74.03;100578.41;10300967;28;20045;-62
2023/02/18 15:05:52;;;;;;;1.95;1.15;;;;;;;11.96;73.67;100589.06;10316661;28;20971;-65
2023/02/18 15:11:04;;;;;;;2.80;1.17;;;;;;;11.98;73.74;100587.13;10317812;28;20057;-63
2023/02/18 15:16:14;;;;;;;1.40;0.82;;;;;;;11.97;74.07;100588.09;10316694;28;20461;-63
2023/02/18 15:21:24;;;;;;;2.83;1.02;;;;;;;12.17;73.79;100591.84;10321650;28;20496;-68
2023/02/18 15:26:26;;;;;;;1.58;0.90;;;;;;;12.09;72.53;100590.75;10313675;28;20064;-64
2023/02/18 15:31:34;;;;;;;2.03;1.42;;;;;;;11.95;72.57;100591.84;10317402;28;20052;-65
2023/02/18 15:36:35;;;;;;;2.53;1.42;;;;;;;11.75;72.91;100580.94;10317044;28;20038;-65
2023/02/18 15:41:38;;;;;;;2.85;1.20;;;;;;;11.96;72.95;100604.22;10313384;28;20051;-62
2023/02/18 15:46:39;;;;;;;1.67;1.13;;;;;;;11.91;71.98;100596.56;10312083;28;20131;-63
2023/02/18 15:51:42;;;;;;;2.30;0.68;;;;;;;11.90;71.97;100589.53;10308475;28;20135;-62
2023/02/18 15:56:48;;;;;;;1.70;0.70;;;;;;;11.91;71.77;100588.56;10308575;28;20148;-64
2023/02/18 16:02:15;;;;;;;2.35;0.60;;;;;;;11.97;70.76;100601.44;10312444;28;20473;-64
2023/02/18 16:07:51;;;;;;;1.48;0.88;;;;;;;11.85;70.83;100594.41;10313849;28;20053;-62
2023/02/18 16:12:59;;;;;;;0.90;0.60;;;;;;;11.82;71.06;100592.00;10309619;28;20061;-62
2023/02/18 16:18:00;;;;;;;1.55;0.52;;;;;;;11.76;71.04;100603.16;10309116;28;20261;-63
2023/02/18 16:23:13;;;;;;;1.33;0.75;;;;;;;11.72;71.01;100585.69;10310894;28;20057;-63
2023/02/18 16:28:29;;;;;;;1.50;0.80;;;;;;;11.73;71.22;100592.72;10317303;28;20056;-63
2023/02/18 16:33:31;;;;;;;2.42;1.20;;;;;;;11.70;71.18;100593.81;10331670;28;20462;-66
2023/02/18 16:38:33;;;;;;;2.20;0.82;;;;;;;11.68;71.53;100601.94;10319769;28;20310;-67
2023/02/18 16:43:34;;;;;;;2.55;0.65;;;;;;;11.66;71.86;100600.34;10323690;28;21564;-65
2023/02/18 16:48:41;;;;;;;3.17;1.00;;;;;;;11.57;71.92;100588.59;10317671;28;20143;-66
2023/02/18 16:53:43;;;;;;;0.93;0.60;;;;;;;11.64;71.83;100588.97;10311594;28;20085;-65
2023/02/18 16:58:45;;;;;;;1.88;1.08;;;;;;;11.58;72.25;100595.63;10313969;28;20054;-65
2023/02/18 17:03:47;;;;;;;2.65;0.90;;;;;;;11.48;72.27;100584.88;10313645;28;20223;-65
2023/02/18 17:08:49;;;;;;;1.42;1.00;;;;;;;11.55;72.36;100608.38;10312406;28;20612;-65
2023/02/18 17:13:53;;;;;;;1.95;0.95;;;;;;;11.54;72.61;100604.84;10307023;28;20066;-66
2023/02/18 17:18:54;;;;;;;1.38;0.90;;;;;;;11.55;72.37;100606.53;10304946;28;20053;-66
2023/02/18 17:23:55;;;;;;;1.95;1.15;;;;;;;11.53;72.68;100613.81;10304180;28;20390;-67
2023/02/18 17:28:59;;;;;;;2.83;0.80;;;;;;;11.44;72.71;100619.84;10311476;28;20130;-67
2023/02/18 17:34:05;;;;;;;2.03;0.85;;;;;;;11.41;73.40;100620.09;10307726;28;20058;-66
2023/02/18 17:39:14;;;;;;;1.33;0.60;;;;;;;11.34;73.38;100617.06;10313175;28;20061;-66
2023/02/18 17:44:18;;;;;;;1.40;0.73;;;;;;;11.27;73.75;100624.72;10312217;28;20183;-65
2023/02/18 17:49:21;;;;;;;1.70;1.10;;;;;;;11.25;73.68;100607.13;10304847;28;20046;-66
2023/02/18 17:54:23;;;;;;;1.35;1.00;;;;;;;11.16;73.96;100611.34;10311828;28;20046;-65
2023/02/18 17:59:28;;;;;;;1.42;1.23;;;;;;;11.25;73.72;100631.13;10310827;28;20055;-64
2023/02/18 18:04:30;;;;;;;0.90;0.80;;;;;;;11.25;73.33;100623.13;10308796;28;20464;-66
2023/02/18 18:09:32;;;;;;;3.47;1.50;;;;;;;11.37;73.17;100639.97;10306748;28;20700;-64
2023/02/18 18:14:33;;;;;;;1.65;1.02;;;;;;;11.40;73.39;100645.91;10312732;28;20057;-65
2023/02/18 18:19:36;;;;;;;1.95;1.05;;;;;;;11.38;73.40;100649.66;10312814;28;20468;-65
2023/02/18 18:24:38;;;;;;;1.42;1.00;;;;;;;11.26;73.41;100644.31;10312488;28;20100;-65
2023/02/18 18:29:39;;;;;;;1.83;1.20;;;;;;;11.20;73.45;100634.13;10315579;28;20488;-66
2023/02/18 18:34:42;;;;;;;3.30;1.60;;;;;;;11.18;74.00;100637.88;10315613;28;20915;-65
2023/02/18 18:39:44;;;;;;;1.95;1.38;;;;;;;11.28;73.74;100658.38;10312197;28;20397;-69
2023/02/18 18:44:46;;;;;;;4.22;2.50;;;;;;;11.28;73.52;100657.53;10311120;28;20088;-65
2023/02/18 18:49:47;;;;;;;4.47;2.38;;;;;;;11.26;73.87;100670.09;10302833;28;20054;-66
2023/02/18 18:54:49;;;;;;;3.83;2.30;;;;;;;11.29;73.95;100677.91;10313026;28;21440;-66
2023/02/18 18:59:50;;;;;;;2.60;1.42;;;;;;;11.29;73.96;100657.41;10305951;28;20160;-66
2023/02/18 19:04:52;;;;;;;3.13;1.65;;;;;;;11.30;73.66;100660.91;10309182;28;20575;-65
2023/02/18 19:09:53;;;;;;;4.38;1.50;;;;;;;11.29;74.30;100665.41;10306226;28;20420;-67
2023/02/18 19:14:55;;;;;;;3.13;1.58;;;;;;;11.05;74.40;100640.63;10305891;28;20057;-66
2023/02/18 19:19:56;;;;;;;2.08;1.70;;;;;;;11.25;74.55;100660.44;10308314;28;20046;-66
2023/02/18 19:24:57;;;;;;;1.60;1.40;;;;;;;11.17;74.85;100663.69;10310961;28;20046;-69
2023/02/18 19:29:59;;;;;;;3.92;1.67;;;;;;;11.09;75.33;100661.63;10312777;28;20109;-66
2023/02/18 19:35:00;;;;;;;2.03;1.35;;;;;;;11.11;75.42;100658.84;10310108;28;20241;-65
2023/02/18 19:40:04;;;;;;;1.67;1.48;;;;;;;11.22;77.45;100653.50;10314264;28;20107;-66
2023/02/18 19:45:06;;;;;;;2.45;1.38;;;;;;;11.49;76.80;100652.34;10309846;28;20062;-66
2023/02/18 19:50:12;;;;;;;1.58;1.42;;;;;;;11.62;73.88;100650.41;10315021;28;20135;-66
2023/02/18 19:55:13;;;;;;;2.55;1.60;;;;;;;11.30;75.21;100653.78;10307725;28;20056;-66
2023/02/18 20:00:16;;;;;;;2.33;1.30;;;;;;;11.23;75.54;100655.22;10309082;28;20072;-64
2023/02/18 20:05:18;;;;;;;1.70;1.45;;;;;;;11.10;75.74;100651.78;10319299;28;20119;-65
2023/02/18 20:10:21;;;;;;;1.25;1.10;;;;;;;11.15;75.40;100652.28;10319976;28;20128;-66
2023/02/18 20:15:23;;;;;;;2.30;1.60;;;;;;;11.02;76.02;100656.84;10320316;28;20080;-65
2023/02/18 20:20:27;;;;;;;2.10;1.80;;;;;;;11.02;76.32;100656.84;10315872;28;20052;-64
2023/02/18 20:25:28;;;;;;;1.70;1.40;;;;;;;11.12;76.08;100652.50;10313763;28;20046;-67
2023/02/18 20:30:29;;;;;;;2.55;2.20;;;;;;;11.10;75.63;100635.81;10315358;28;20064;-66
2023/02/18 20:35:31;;;;;;;3.47;2.30;;;;;;;11.16;75.52;100647.81;10314558;28;20058;-65
2023/02/18 20:40:32;;;;;;;2.53;1.92;;;;;;;11.04;76.68;100646.94;10315202;28;20066;-64
2023/02/18 20:45:33;;;;;;;2.75;2.33;;;;;;;11.08;77.00;100643.91;10310522;28;20171;-66
2023/02/18 20:50:35;;;;;;;4.68;2.50;;;;;;;11.07;76.52;100634.22;10311848;28;20060;-65
2023/02/18 20:55:37;;;;;;;2.33;2.13;;;;;;;11.08;76.54;100635.06;10304652;28;20102;-65
2023/02/18 21:00:39;;;;;;;3.13;2.80;;;;;;;11.05;75.92;100625.50;10309847;28;20524;-66
2023/02/18 21:05:40;;;;;;;3.22;2.92;;;;;;;10.99;76.03;100614.47;10306727;28;20049;-66
2023/02/18 21:10:42;;;;;;;3.80;3.40;;;;;;;10.99;76.18;100628.66;10309373;28;20046;-67
2023/02/18 21:15:43;;;;;;;5.28;3.22;;;;;;;11.00;76.32;100627.66;10315836;28;20061;-65
2023/02/18 21:20:46;;;;;;;3.95;3.55;;;;;;;11.10;75.79;100628.66;10307134;28;20068;-69
2023/02/18 21:25:47;;;;;;;5.85;3.15;;;;;;;11.08;75.88;100608.41;10310794;28;20548;-65
2023/02/18 21:30:48;;;;;;;3.60;3.30;;;;;;;11.00;75.98;100600.19;10311464;28;20057;-65
2023/02/18 21:35:50;;;;;;;3.80;3.50;;;;;;;10.89;76.49;100601.00;10305546;28;20147;-65
2023/02/18 21:40:51;;;;;;;5.63;3.85;;;;;;;10.91;76.86;100613.25;10310362;28;20046;-64
2023/02/18 21:45:53;;;;;;;4.25;3.85;;;;;;;10.96;76.44;100595.09;10310318;28;20509;-66
2023/02/18 21:50:59;;;;;;;4.82;4.38;;;;;;;10.92;76.51;100603.44;10308822;28;20528;-64
2023/02/18 21:56:08;;;;;;;4.45;3.85;;;;;;;10.91;76.71;100599.94;10310344;28;20056;-64
2023/02/18 22:01:10;;;;;;;5.75;4.47;;;;;;;11.02;76.60;100588.44;10310294;28;20060;-64
2023/02/18 22:06:13;;;;;;;4.45;4.05;;;;;;;11.00;76.13;100576.22;10306314;28;20061;-64
2023/02/18 22:11:14;;;;;;;4.38;3.97;;;;;;;10.92;76.29;100577.66;10312210;28;20068;-65
2023/02/18 22:16:15;;;;;;;4.45;4.10;;;;;;;10.89;76.38;100569.06;10309629;28;20904;-64
2023/02/18 22:21:17;;;;;;;5.80;4.00;;;;;;;10.91;76.53;100575.97;10307433;28;20049;-65
2023/02/18 22:26:21;;;;;;;3.97;3.60;;;;;;;10.83;76.61;100570.38;10305692;28;20050;-68
2023/02/18 22:31:26;;;;;;;5.28;4.25;;;;;;;10.86;76.67;100556.81;10304518;28;20050;-65
2023/02/18 22:36:28;;;;;;;5.22;4.25;;;;;;;10.78;77.01;100556.56;10309503;28;20258;-66
2023/02/18 22:41:32;;;;;;;4.80;4.40;;;;;;;10.77;77.04;100562.84;10314378;28;20096;-67
2023/02/18 22:46:35;;;;;;;4.85;4.18;;;;;;;10.67;77.62;100551.19;10310721;28;20300;-67
2023/02/18 22:51:39;;;;;;;4.57;4.18;;;;;;;10.55;77.88;100537.00;10307199;28;20148;-67
2023/02/18 22:56:41;;;;;;;6.20;4.22;;;;;;;10.66;77.64;100547.69;10308242;28;20053;-66
2023/02/18 23:01:49;;;;;;;4.95;4.25;;;;;;;10.70;77.38;100542.97;10301540;28;20096;-71
2023/02/18 23:06:50;;;;;;;5.80;4.70;;;;;;;10.65;77.69;100543.34;10320999;28;20066;-67
2023/02/18 23:11:56;;;;;;;4.35;3.78;;;;;;;10.63;77.72;100533.75;10310527;28;20069;-67
2023/02/18 23:17:12;;;;;;;4.25;3.92;;;;;;;10.64;77.41;100532.81;10322567;28;20053;-66
2023/02/18 23:22:17;;;;;;;5.90;4.90;;;;;;;10.65;77.29;100531.84;10309195;28;20085;-67